createdAt,value
2018-11-02T00:00:17.789Z,91.30
2018-11-02T00:02:46.315Z,91.60
2018-11-02T00:05:14.832Z,91.50
2018-11-02T00:07:43.636Z,91.40
2018-11-02T00:10:12.202Z,91.60
2018-11-02T00:12:40.765Z,91.60
2018-11-02T00:15:09.311Z,92.20
2018-11-02T00:17:38.076Z,92.10
2018-11-02T00:20:06.931Z,92.00
2018-11-02T00:22:35.582Z,92.10
2018-11-02T00:25:04.138Z,92.40
2018-11-02T00:27:32.711Z,92.60
2018-11-02T00:30:01.781Z,92.40
2018-11-02T00:32:30.337Z,92.50
2018-11-02T00:34:58.887Z,92.40
2018-11-02T00:37:27.472Z,92.40
2018-11-02T00:39:56.000Z,92.80
2018-11-02T00:42:24.576Z,92.30
2018-11-02T00:44:53.263Z,92.20
2018-11-02T00:47:21.874Z,92.00
2018-11-02T00:49:50.480Z,91.60
2018-11-02T00:52:19.022Z,91.60
2018-11-02T00:54:47.597Z,92.10
2018-11-02T00:57:16.183Z,92.30
2018-11-02T00:59:44.766Z,92.50
2018-11-02T01:02:13.326Z,92.50
2018-11-02T01:04:41.896Z,92.60
2018-11-02T01:07:10.423Z,92.60
2018-11-02T01:09:38.976Z,92.60
2018-11-02T01:12:07.561Z,92.50
2018-11-02T01:14:36.127Z,92.60
2018-11-02T01:17:05.434Z,92.60
2018-11-02T01:19:34.792Z,92.80
2018-11-02T01:22:04.911Z,92.70
2018-11-02T01:24:33.631Z,93.10
2018-11-02T01:27:02.165Z,93.00
2018-11-02T01:29:30.703Z,93.20
2018-11-02T01:31:59.251Z,93.30
2018-11-02T01:34:27.834Z,93.40
2018-11-02T01:36:56.440Z,92.90
2018-11-02T01:39:24.988Z,92.60
2018-11-02T01:41:53.612Z,92.00
2018-11-02T01:44:22.187Z,92.10
2018-11-02T01:46:50.707Z,92.00
2018-11-02T01:49:19.280Z,91.80
2018-11-02T01:51:47.794Z,91.90
2018-11-02T01:54:16.553Z,92.70
2018-11-02T01:56:45.106Z,93.20
2018-11-02T01:59:13.689Z,93.30
2018-11-02T02:01:42.285Z,93.80
2018-11-02T02:04:10.863Z,93.80
2018-11-02T02:06:39.431Z,93.60
2018-11-02T02:09:09.989Z,93.40
2018-11-02T02:11:38.583Z,93.30
2018-11-02T02:14:07.423Z,92.80
2018-11-02T02:16:36.044Z,92.40
2018-11-02T02:19:05.286Z,92.80
2018-11-02T02:21:33.820Z,92.80
2018-11-02T02:24:02.381Z,92.90
2018-11-02T02:26:30.916Z,92.90
2018-11-02T02:28:59.447Z,92.80
2018-11-02T02:31:28.056Z,92.90
2018-11-02T02:33:56.598Z,92.80
2018-11-02T02:36:25.259Z,92.70
2018-11-02T02:38:54.403Z,92.70
2018-11-02T02:41:24.167Z,92.70
2018-11-02T02:43:52.897Z,92.90
2018-11-02T02:46:21.442Z,93.10
2018-11-02T02:48:49.997Z,93.20
2018-11-02T02:51:18.552Z,93.40
2018-11-02T02:53:47.134Z,93.50
2018-11-02T02:56:15.704Z,93.50
2018-11-02T02:58:44.218Z,93.30
2018-11-02T03:01:12.746Z,93.30
2018-11-02T03:03:41.264Z,93.70
2018-11-02T03:06:09.805Z,93.10
2018-11-02T03:08:38.522Z,93.00
2018-11-02T03:11:07.348Z,92.90
2018-11-02T03:13:35.699Z,92.70
2018-11-02T03:16:04.306Z,92.60
2018-11-02T03:18:32.992Z,92.60
2018-11-02T03:21:01.510Z,92.70
2018-11-02T03:23:30.187Z,92.70
2018-11-02T03:25:58.964Z,92.90
2018-11-02T03:28:27.452Z,92.90
2018-11-02T03:30:56.245Z,92.90
2018-11-02T03:33:24.992Z,93.00
2018-11-02T03:35:53.510Z,93.10
2018-11-02T03:38:22.090Z,93.10
2018-11-02T03:40:50.876Z,93.10
2018-11-02T03:43:19.410Z,93.00
2018-11-02T03:45:47.990Z,93.00
2018-11-02T03:48:16.607Z,92.90
2018-11-02T03:50:45.433Z,92.80
2018-11-02T03:53:13.912Z,92.80
2018-11-02T03:55:43.644Z,92.80
2018-11-02T03:58:12.916Z,92.80
2018-11-02T04:00:41.524Z,92.80
2018-11-02T04:03:10.169Z,92.70
2018-11-02T04:05:38.737Z,92.90
2018-11-02T04:08:07.268Z,92.70
2018-11-02T04:10:35.827Z,92.80
2018-11-02T04:13:04.429Z,92.70
2018-11-02T04:15:33.066Z,92.50
2018-11-02T04:18:01.625Z,92.40
2018-11-02T04:20:30.254Z,92.40
2018-11-02T04:22:58.819Z,92.40
2018-11-02T04:25:27.402Z,92.50
2018-11-02T04:27:55.936Z,92.90
2018-11-02T04:30:24.547Z,93.00
2018-11-02T04:32:53.115Z,92.80
2018-11-02T04:35:21.719Z,92.70
2018-11-02T04:37:50.230Z,92.70
2018-11-02T04:40:18.739Z,92.60
2018-11-02T04:42:47.273Z,92.60
2018-11-02T04:45:18.708Z,92.50
2018-11-02T04:47:47.257Z,92.50
2018-11-02T04:50:15.776Z,92.70
2018-11-02T04:52:44.314Z,92.40
2018-11-02T04:55:12.827Z,92.20
2018-11-02T04:57:41.346Z,92.00
2018-11-02T05:00:11.107Z,92.10
2018-11-02T05:02:39.881Z,92.20
2018-11-02T05:05:08.417Z,92.30
2018-11-02T05:07:37.530Z,92.20
2018-11-02T05:10:07.722Z,92.50
2018-11-02T05:12:36.251Z,92.60
2018-11-02T05:15:04.810Z,92.60
2018-11-02T05:17:33.659Z,92.60
2018-11-02T05:20:02.225Z,92.70
2018-11-02T05:22:30.929Z,92.60
2018-11-02T05:24:59.418Z,92.60
2018-11-02T05:27:27.960Z,92.50
2018-11-02T05:29:56.483Z,92.50
2018-11-02T05:32:25.079Z,92.60
2018-11-02T05:34:56.931Z,92.50
2018-11-02T05:37:25.496Z,92.60
2018-11-02T05:39:54.000Z,92.60
2018-11-02T05:42:22.575Z,92.70
2018-11-02T05:44:51.077Z,93.00
2018-11-02T05:47:19.724Z,93.30
2018-11-02T05:49:48.480Z,93.50
2018-11-02T05:52:17.005Z,93.50
2018-11-02T05:54:46.749Z,93.40
2018-11-02T05:57:15.359Z,93.30
2018-11-02T05:59:43.944Z,93.30
2018-11-02T06:02:12.463Z,93.20
2018-11-02T06:04:41.580Z,93.10
2018-11-02T06:07:10.792Z,93.00
2018-11-02T06:09:40.139Z,92.90
2018-11-02T06:12:09.521Z,92.90
2018-11-02T06:14:38.036Z,93.40
2018-11-02T06:17:06.823Z,93.30
2018-11-02T06:19:35.354Z,93.50
2018-11-02T06:22:04.007Z,93.90
2018-11-02T06:24:32.543Z,94.30
2018-11-02T06:27:01.384Z,94.40
2018-11-02T06:29:29.882Z,94.40
2018-11-02T06:31:58.678Z,94.40
2018-11-02T06:34:27.323Z,94.30
2018-11-02T06:36:56.149Z,94.10
2018-11-02T06:39:25.057Z,94.20
2018-11-02T06:41:53.635Z,94.00
2018-11-02T06:44:22.544Z,93.80
2018-11-02T06:46:52.275Z,93.60
2018-11-02T06:49:20.779Z,93.50
2018-11-02T06:51:50.406Z,93.40
2018-11-02T06:54:18.929Z,93.50
2018-11-02T06:56:47.628Z,93.60
2018-11-02T06:59:16.251Z,93.70
2018-11-02T07:01:44.841Z,93.80
2018-11-02T07:04:13.907Z,94.00
2018-11-02T07:06:42.531Z,94.30
2018-11-02T07:09:12.100Z,94.40
2018-11-02T07:11:40.612Z,94.20
2018-11-02T07:14:09.811Z,94.00
2018-11-02T07:16:38.398Z,93.90
2018-11-02T07:19:06.958Z,93.90
2018-11-02T07:21:35.498Z,93.90
2018-11-02T07:24:04.084Z,93.90
2018-11-02T07:26:32.625Z,93.90
2018-11-02T07:29:01.205Z,94.30
2018-11-02T07:31:29.799Z,94.80
2018-11-02T07:33:58.407Z,94.90
2018-11-02T07:36:27.316Z,94.70
2018-11-02T07:38:55.900Z,94.50
2018-11-02T07:41:24.708Z,94.40
2018-11-02T07:43:53.292Z,94.30
2018-11-02T07:46:21.914Z,94.30
2018-11-02T07:48:50.531Z,94.30
2018-11-02T07:51:19.218Z,94.40
2018-11-02T07:53:47.716Z,94.80
2018-11-02T07:56:16.270Z,94.80
2018-11-02T07:58:44.913Z,94.60
2018-11-02T08:01:13.410Z,94.60
2018-11-02T08:03:42.016Z,94.50
2018-11-02T08:06:10.774Z,94.60
2018-11-02T08:08:39.356Z,94.40
2018-11-02T08:11:08.318Z,94.30
2018-11-02T08:13:36.826Z,94.50
2018-11-02T08:16:05.631Z,94.50
2018-11-02T08:18:34.158Z,94.40
2018-11-02T08:21:02.689Z,94.50
2018-11-02T08:23:31.298Z,94.70
2018-11-02T08:26:00.090Z,94.30
2018-11-02T08:28:35.341Z,94.30
2018-11-02T08:31:03.858Z,94.30
2018-11-02T08:33:32.455Z,94.30
2018-11-02T08:36:01.047Z,94.30
2018-11-02T08:38:29.571Z,94.20
2018-11-02T08:40:58.119Z,94.40
2018-11-02T08:43:26.666Z,94.50
2018-11-02T08:45:55.548Z,94.30
2018-11-02T08:48:24.084Z,94.40
2018-11-02T08:50:52.626Z,94.10
2018-11-02T08:53:21.193Z,93.80
2018-11-02T08:55:49.750Z,93.50
2018-11-02T08:58:18.370Z,93.40
2018-11-02T09:00:46.898Z,93.20
2018-11-02T09:03:15.414Z,92.70
2018-11-02T09:05:43.945Z,92.30
2018-11-02T09:08:13.254Z,92.40
2018-11-02T09:10:41.831Z,92.40
2018-11-02T09:13:10.327Z,92.30
2018-11-02T09:15:38.852Z,92.30
2018-11-02T09:18:07.386Z,92.20
2018-11-02T09:20:36.106Z,92.10
2018-11-02T09:23:04.907Z,91.90
2018-11-02T09:25:33.428Z,91.60
2018-11-02T09:28:02.536Z,91.40
2018-11-02T09:30:31.022Z,91.50
2018-11-02T09:32:59.552Z,91.40
2018-11-02T09:35:28.100Z,91.30
2018-11-02T09:37:57.036Z,91.20
2018-11-02T09:40:25.589Z,91.00
2018-11-02T09:42:54.109Z,90.90
2018-11-02T09:45:22.632Z,90.30
2018-11-02T09:47:51.207Z,89.50
2018-11-02T09:50:19.735Z,89.00
2018-11-02T09:52:48.259Z,88.30
2018-11-02T09:55:17.057Z,88.20
2018-11-02T09:57:46.359Z,87.40
2018-11-02T10:00:15.291Z,86.80
2018-11-02T10:02:43.904Z,86.80
2018-11-02T10:05:13.197Z,86.30
2018-11-02T10:07:42.227Z,86.00
2018-11-02T10:10:12.120Z,86.20
2018-11-02T10:12:40.707Z,84.90
2018-11-02T10:15:11.743Z,83.00
2018-11-02T10:17:40.352Z,82.30
2018-11-02T10:20:09.603Z,79.80
2018-11-02T10:22:38.287Z,78.20
2018-11-02T10:25:07.468Z,76.40
2018-11-02T10:27:36.215Z,73.90
2018-11-02T10:30:05.893Z,69.80
2018-11-02T10:32:34.474Z,68.30
2018-11-02T10:35:03.083Z,65.70
2018-11-02T10:37:31.693Z,64.00
2018-11-02T10:40:00.308Z,62.10
2018-11-02T10:42:28.907Z,61.20
2018-11-02T10:44:57.551Z,58.70
2018-11-02T10:47:26.340Z,56.70
2018-11-02T10:49:54.837Z,55.80
2018-11-02T10:52:23.507Z,55.20
2018-11-02T10:54:52.011Z,53.30
2018-11-02T10:57:21.202Z,51.40
2018-11-02T10:59:49.740Z,50.10
2018-11-02T11:02:28.409Z,50.50
2018-11-02T11:04:57.406Z,49.60
2018-11-02T11:07:26.118Z,49.50
2018-11-02T11:09:54.644Z,49.40
2018-11-02T11:12:23.415Z,47.60
2018-11-02T11:14:51.829Z,47.50
2018-11-02T11:17:20.386Z,45.30
2018-11-02T11:19:48.944Z,44.40
2018-11-02T11:22:17.508Z,44.50
2018-11-02T11:24:46.085Z,43.30
2018-11-02T11:27:14.688Z,43.50
2018-11-02T11:29:43.341Z,42.10
2018-11-02T11:32:12.745Z,41.20
2018-11-02T11:34:41.290Z,40.40
2018-11-02T11:37:09.879Z,39.50
2018-11-02T11:39:38.882Z,38.90
2018-11-02T11:42:07.412Z,38.80
2018-11-02T11:44:35.969Z,39.60
2018-11-02T11:47:04.561Z,38.90
2018-11-02T11:49:33.518Z,38.50
2018-11-02T11:52:02.099Z,37.20
2018-11-02T11:54:30.828Z,36.80
2018-11-02T11:56:59.271Z,37.20
2018-11-02T11:59:27.801Z,36.20
2018-11-02T12:01:56.346Z,34.50
2018-11-02T12:04:25.009Z,34.70
2018-11-02T12:06:53.488Z,33.90
2018-11-02T12:09:22.052Z,33.30
2018-11-02T12:11:50.603Z,33.70
2018-11-02T12:14:19.162Z,34.40
2018-11-02T12:16:47.686Z,35.70
2018-11-02T12:19:16.276Z,36.80
2018-11-02T12:21:44.913Z,37.50
2018-11-02T12:24:13.488Z,38.30
2018-11-02T12:26:42.050Z,39.20
2018-11-02T12:29:10.662Z,39.50
2018-11-02T12:31:39.184Z,40.30
2018-11-02T12:34:07.695Z,41.20
2018-11-02T12:36:36.218Z,41.60
2018-11-02T12:39:06.796Z,42.00
2018-11-02T12:41:35.287Z,42.70
2018-11-02T12:44:03.927Z,43.20
2018-11-02T12:46:32.507Z,43.80
2018-11-02T12:49:01.525Z,44.30
2018-11-02T12:51:29.598Z,44.90
2018-11-02T12:53:58.178Z,45.40
2018-11-02T12:56:26.708Z,46.10
2018-11-02T12:58:55.279Z,46.60
2018-11-02T13:01:23.774Z,46.90
2018-11-02T13:03:52.351Z,47.30
2018-11-02T13:06:20.858Z,47.50
2018-11-02T13:08:49.426Z,47.30
2018-11-02T13:11:17.953Z,47.70
2018-11-02T13:13:46.456Z,48.20
2018-11-02T13:16:15.036Z,48.10
2018-11-02T13:18:43.659Z,48.30
2018-11-02T13:21:12.237Z,48.60
2018-11-02T13:23:40.780Z,48.60
2018-11-02T13:26:09.567Z,48.70
2018-11-02T13:28:37.867Z,48.80
2018-11-02T13:31:06.477Z,48.50
2018-11-02T13:33:35.000Z,48.30
2018-11-02T13:36:03.658Z,48.40
2018-11-02T13:38:32.185Z,48.10
2018-11-02T13:41:00.738Z,46.90
2018-11-02T13:43:29.306Z,46.60
2018-11-02T13:45:57.853Z,45.00
2018-11-02T13:48:26.421Z,43.60
2018-11-02T13:50:54.950Z,42.60
2018-11-02T13:53:23.473Z,41.80
2018-11-02T13:55:52.060Z,41.80
2018-11-02T13:58:20.606Z,41.90
2018-11-02T14:00:49.145Z,41.80
2018-11-02T14:03:17.683Z,38.10
2018-11-02T14:05:46.225Z,38.00
2018-11-02T14:08:14.810Z,37.70
2018-11-02T14:10:43.361Z,37.20
2018-11-02T14:13:12.964Z,37.10
2018-11-02T14:15:41.490Z,37.00
2018-11-02T14:18:10.030Z,37.00
2018-11-02T14:20:38.544Z,37.50
2018-11-02T14:23:07.127Z,37.90
2018-11-02T14:25:35.662Z,39.10
2018-11-02T14:28:04.446Z,40.30
2018-11-02T14:30:32.949Z,41.60
2018-11-02T14:33:01.495Z,42.70
2018-11-02T14:35:30.046Z,43.90
2018-11-02T14:37:58.556Z,44.70
2018-11-02T14:40:27.477Z,45.60
2018-11-02T14:42:55.982Z,46.60
2018-11-02T14:45:24.531Z,47.40
2018-11-02T14:47:53.055Z,48.00
2018-11-02T14:50:21.645Z,48.70
2018-11-02T14:52:50.154Z,49.30
2018-11-02T14:55:18.687Z,50.30
2018-11-02T14:57:47.206Z,50.30
2018-11-02T15:00:15.741Z,50.80
2018-11-02T15:02:44.303Z,51.20
2018-11-02T15:05:13.801Z,52.20
2018-11-02T15:07:43.338Z,51.70
2018-11-02T15:10:11.904Z,52.40
2018-11-02T15:12:40.812Z,53.00
2018-11-02T15:15:09.912Z,53.20
2018-11-02T15:17:38.808Z,53.60
2018-11-02T15:20:09.565Z,53.80
2018-11-02T15:22:38.148Z,53.90
2018-11-02T15:25:07.099Z,54.20
2018-11-02T15:27:36.063Z,54.90
2018-11-02T15:30:05.958Z,54.60
2018-11-02T15:32:34.519Z,54.70
2018-11-02T15:35:03.414Z,55.10
2018-11-02T15:37:32.089Z,55.20
2018-11-02T15:40:00.743Z,55.50
2018-11-02T15:42:29.331Z,55.90
2018-11-02T15:44:58.019Z,56.10
2018-11-02T15:47:26.618Z,56.40
2018-11-02T15:49:55.238Z,56.80
2018-11-02T15:52:23.781Z,57.00
2018-11-02T15:54:52.495Z,57.50
2018-11-02T15:57:21.287Z,57.60
2018-11-02T15:59:49.875Z,57.80
2018-11-02T16:02:18.417Z,58.60
2018-11-02T16:04:47.073Z,58.80
2018-11-02T16:07:15.627Z,59.00
2018-11-02T16:09:44.351Z,59.20
2018-11-02T16:12:12.907Z,59.70
2018-11-02T16:14:41.494Z,59.90
2018-11-02T16:17:10.077Z,60.50
2018-11-02T16:19:38.807Z,61.20
2018-11-02T16:22:07.391Z,61.80
2018-11-02T16:24:35.915Z,62.20
2018-11-02T16:27:04.539Z,62.90
2018-11-02T16:29:33.147Z,63.40
2018-11-02T16:32:01.801Z,63.50
2018-11-02T16:34:30.372Z,64.20
2018-11-02T16:36:58.885Z,64.40
2018-11-02T16:39:27.439Z,64.80
2018-11-02T16:41:56.015Z,65.40
2018-11-02T16:44:24.660Z,65.70
2018-11-02T16:46:53.175Z,66.00
2018-11-02T16:49:21.808Z,66.20
2018-11-02T16:51:50.410Z,66.40
2018-11-02T16:54:19.022Z,66.60
2018-11-02T16:56:47.545Z,66.60
2018-11-02T16:59:16.113Z,66.70
2018-11-02T17:01:44.688Z,67.60
2018-11-02T17:04:13.305Z,67.50
2018-11-02T17:06:41.934Z,67.20
2018-11-02T17:09:12.167Z,67.50
2018-11-02T17:11:40.764Z,67.80
2018-11-02T17:14:09.305Z,68.10
2018-11-02T17:16:37.826Z,68.00
2018-11-02T17:19:06.473Z,68.30
2018-11-02T17:21:35.042Z,68.60
2018-11-02T17:24:03.881Z,68.70
2018-11-02T17:26:32.468Z,68.90
2018-11-02T17:29:01.409Z,69.20
2018-11-02T17:31:30.066Z,69.40
2018-11-02T17:33:58.663Z,69.40
2018-11-02T17:36:27.313Z,69.70
2018-11-02T17:38:55.840Z,69.40
2018-11-02T17:41:24.412Z,69.30
2018-11-02T17:43:52.971Z,69.60
2018-11-02T17:46:21.904Z,71.90
2018-11-02T17:48:50.503Z,71.50
2018-11-02T17:51:19.124Z,71.70
2018-11-02T17:53:47.792Z,72.00
2018-11-02T17:56:16.402Z,71.80
2018-11-02T17:58:44.960Z,72.10
2018-11-02T18:01:13.600Z,72.70
2018-11-02T18:03:42.724Z,72.40
2018-11-02T18:06:11.392Z,72.30
2018-11-02T18:08:39.882Z,72.50
2018-11-02T18:11:08.422Z,72.60
2018-11-02T18:13:37.056Z,72.90
2018-11-02T18:16:05.800Z,73.80
2018-11-02T18:18:34.399Z,73.90
2018-11-02T18:21:03.048Z,73.90
2018-11-02T18:23:31.662Z,74.30
2018-11-02T18:26:00.212Z,74.60
2018-11-02T18:28:28.826Z,75.40
2018-11-02T18:30:57.477Z,75.90
2018-11-02T18:33:26.071Z,75.50
2018-11-02T18:35:54.645Z,75.60
2018-11-02T18:38:23.223Z,75.70
2018-11-02T18:40:51.788Z,76.00
2018-11-02T18:43:20.437Z,76.30
2018-11-02T18:45:48.993Z,76.60
2018-11-02T18:48:17.860Z,78.80
2018-11-02T18:50:46.337Z,77.70
2018-11-02T18:53:14.889Z,78.50
2018-11-02T18:55:43.532Z,78.60
2018-11-02T18:58:12.140Z,78.80
2018-11-02T19:00:40.725Z,79.20
2018-11-02T19:03:09.347Z,79.40
2018-11-02T19:05:37.908Z,79.30
2018-11-02T19:08:06.438Z,80.20
2018-11-02T19:10:35.008Z,80.60
2018-11-02T19:13:03.589Z,80.40
2018-11-02T19:15:32.180Z,80.30
2018-11-02T19:18:00.862Z,80.70
2018-11-02T19:20:29.594Z,80.90
2018-11-02T19:22:58.163Z,81.20
2018-11-02T19:25:27.594Z,81.70
2018-11-02T19:27:56.233Z,81.90
2018-11-02T19:30:24.874Z,82.90
2018-11-02T19:32:53.473Z,82.70
2018-11-02T19:35:22.259Z,83.70
2018-11-02T19:37:50.842Z,84.40
2018-11-02T19:40:19.361Z,84.30
2018-11-02T19:42:47.969Z,84.80
2018-11-02T19:45:16.810Z,84.10
2018-11-02T19:47:54.843Z,83.60
2018-11-02T19:50:23.599Z,83.40
2018-11-02T19:52:52.219Z,82.60
2018-11-02T19:55:20.944Z,83.10
2018-11-02T19:57:49.615Z,82.00
2018-11-02T20:00:18.295Z,82.00
2018-11-02T20:02:47.118Z,81.50
2018-11-02T20:05:17.415Z,81.00
2018-11-02T20:07:46.007Z,80.90
2018-11-02T20:10:15.609Z,80.80
2018-11-02T20:12:44.494Z,81.00
2018-11-02T20:15:13.984Z,80.90
2018-11-02T20:17:43.217Z,81.00
2018-11-02T20:20:13.530Z,81.40
2018-11-02T20:22:42.246Z,81.70
2018-11-02T20:25:13.545Z,82.10
2018-11-02T20:27:42.181Z,82.30
2018-11-02T20:30:16.730Z,82.70
2018-11-02T20:32:47.746Z,82.60
2018-11-02T20:35:18.630Z,83.00
2018-11-02T20:37:48.995Z,83.50
2018-11-02T20:40:19.904Z,83.30
2018-11-02T20:42:50.778Z,82.40
2018-11-02T20:45:19.552Z,83.30
2018-11-02T20:47:49.371Z,82.50
2018-11-02T20:50:18.364Z,82.50
2018-11-02T20:52:47.081Z,82.20
2018-11-02T20:55:16.101Z,82.50
2018-11-02T20:57:44.732Z,82.40
2018-11-02T21:00:14.935Z,82.60
2018-11-02T21:02:44.072Z,82.60
2018-11-02T21:05:13.708Z,82.60
2018-11-02T21:07:42.690Z,82.60
2018-11-02T21:10:12.731Z,83.10
2018-11-02T21:12:41.348Z,82.80
2018-11-02T21:15:12.328Z,83.50
2018-11-02T21:17:41.052Z,83.20
2018-11-02T21:20:14.677Z,83.20
2018-11-02T21:22:43.624Z,83.10
2018-11-02T21:25:13.008Z,82.80
2018-11-02T21:27:42.437Z,83.10
2018-11-02T21:30:16.093Z,83.20
2018-11-02T21:32:45.642Z,82.90
2018-11-02T21:35:14.918Z,83.00
2018-11-02T21:37:43.589Z,82.90
2018-11-02T21:40:15.307Z,83.00
2018-11-02T21:42:44.302Z,83.10
2018-11-02T21:45:14.568Z,83.20
2018-11-02T21:47:43.372Z,83.00
2018-11-02T21:50:12.959Z,82.70
2018-11-02T21:52:41.550Z,82.60
2018-11-02T21:55:10.247Z,82.80
2018-11-02T21:57:39.089Z,83.00
2018-11-02T22:00:09.971Z,82.80
2018-11-02T22:02:38.738Z,82.70
2018-11-02T22:05:08.618Z,82.50
2018-11-02T22:07:37.199Z,83.00
2018-11-02T22:12:32.555Z,83.00
2018-11-02T22:15:01.123Z,83.10
2018-11-02T22:17:29.733Z,83.10
2018-11-02T22:19:58.300Z,83.20
2018-11-02T22:22:26.920Z,82.90
2018-11-02T22:24:55.491Z,83.00
2018-11-02T22:27:24.137Z,82.60
2018-11-02T22:29:53.723Z,82.50
2018-11-02T22:32:22.618Z,82.20
2018-11-02T22:34:51.224Z,81.80
2018-11-02T22:37:19.841Z,81.40
2018-11-02T22:39:48.515Z,81.00
2018-11-02T22:42:17.076Z,80.60
2018-11-02T22:44:45.693Z,80.00
2018-11-02T22:47:14.350Z,79.30
2018-11-02T22:49:43.055Z,78.70
2018-11-02T22:52:12.294Z,78.50
2018-11-02T22:54:40.886Z,78.20
2018-11-02T22:57:09.577Z,77.90
2018-11-02T22:59:38.205Z,77.60
2018-11-02T23:02:07.205Z,77.30
2018-11-02T23:04:35.963Z,77.60
2018-11-02T23:07:04.597Z,76.70
2018-11-02T23:09:33.238Z,76.50
2018-11-02T23:12:01.878Z,76.30
2018-11-02T23:14:30.478Z,76.20
2018-11-02T23:16:59.120Z,76.00
2018-11-02T23:19:27.817Z,75.90
2018-11-02T23:21:56.360Z,75.90
2018-11-02T23:24:24.959Z,75.90
2018-11-02T23:26:53.625Z,75.80
2018-11-02T23:29:22.279Z,75.80
2018-11-02T23:31:57.260Z,76.00
2018-11-02T23:34:25.847Z,76.30
2018-11-02T23:36:54.519Z,76.50
2018-11-02T23:39:23.071Z,76.40
2018-11-02T23:41:51.751Z,76.60
2018-11-02T23:44:20.332Z,76.60
2018-11-02T23:46:49.013Z,76.60
2018-11-02T23:49:17.611Z,76.80
2018-11-02T23:51:46.276Z,76.70
2018-11-02T23:54:14.869Z,76.80
2018-11-02T23:56:43.479Z,76.70
2018-11-02T23:59:12.417Z,76.90
